TAF Text Data
IDs:
Format:
Raw Decoded Include METAR

Data at: 0751 UTC 23 Oct 2018

KFLG 230657Z AUTO 00000KT 10SM CLR 03/02 A3018 RMK AO2 SLP164 T00330017 401560011

KFLG 230521Z 2306/2406 VRB03KT P6SM FEW025 SCT050
  FM231600 19010KT P6SM BKN050
  PROB30 2316/2322 VRB10G20KT 5SM TSRA BKN040CB OVC050
  FM240100 VRB03KT P6SM SCT080